Aeroporto :
LOGIN :

Iscrizione | Disclaimer

   EN    FR    IT 

 










Sommario :    VFR   VFR Marginale   IFR   IFR Intensivo   IFR Molto Intensivo
Visibilità : 
Base nubi : 
>= 8 km
>= 3000ft
5 / 8 km
1000 / 3000 ft
1500m / 5 km
500 / 1000 ft
800 / 1500m
200 / 500 ft
< 800m
< 200 ft
Simboli :   Temporali  Nebbia  Neve Forte  Precipitazioni Forti  Vento > 20 kt
SIGMETs :   Varie  Temporali  Ghiacco  Turbolenza  Onda orograficha  Ceneri Vulcaniche







- Altitudine del aeroporto : 302 ft
- Codice IATA : CGN


EDDK - Cologne Bonn

ULTIMO METAR :
  • 191750Z 07010KT 9999 -RA SCT027 BKN034 04/M01 Q1013 NOSIG

METARs OBSOLETI :
  • 191720Z 06007KT 9999 -RA SCT032 05/M01 Q1014 NOSIG
  • 191650Z 06007KT 9999 -RA FEW025 SCT038 04/M01 Q1014 NOSIG
  • 191620Z 05006KT 9999 -RA FEW014 SCT037 04/M01 Q1014 NOSIG
  • 191550Z 07014KT 9999 -RA FEW028 SCT034 05/M01 Q1015 NOSIG
  • 191520Z 06011KT 9999 -RA FEW028 SCT032 05/M01 Q1015 NOSIG

TAF TAF EDDK
Valido dal 19 a 18 ore il 21 a 00 ore UTC


191700Z 1918/2024 06010KT 9999 BKN030
BECMG 2008/2011 12010KT
PROB30
TEMPO 2013/2016 4000 -RASN
Nessun NOTAM noto per questo aeroporto.



MetMap, La meteo Aeronautica in un colpo d'occhio ! - Copyright ORBIFLY Dicembre 2007 - Disclaimer

ORBIFLY MET'MAP TEAM :

Programmazione e sviluppo : Alexandra Zaïnal
Concezione e sviluppo : Baudouin d'Aumeries
Co-Programmazione e sviluppo : Marc-Olivier Méhu
Supporto tecnico e logistico : Manuel Goepfert
Aiuto per la traduzione : Arnaldo La Scala

Contatto : metmap@orbifly.com




FONTI E CREDITI :

   NOAA